Time;durP1;ratioP1;P1;durP2;ratioP2;P2;SDS_P1;SDS_P2;PMS_P1;PMS_P2;Temp;Humidity;BMP_temperature;BMP_pressure;BME280_temperature;BME280_humidity;BME280_pressure;Samples;Min_cycle;Max_cycle;Signal;HPM_P1;HPM_P2
2022/10/04 00:02:22;;;;;;;;;38.00;35.00;;;;;;;;5097157;27;45723;-80
2022/10/04 00:04:52;;;;;;;;;48.75;38.50;;;;;;;;5094460;27;46405;-80
2022/10/04 00:07:21;;;;;;;;;43.25;36.00;;;;;;;;5075018;27;46374;-78
2022/10/04 00:10:09;;;;;;;;;47.33;37.00;;;;;;;;5074049;27;46172;-79
2022/10/04 00:12:38;;;;;;;;;46.33;37.33;;;;;;;;5076590;27;45708;-79
2022/10/04 00:15:16;;;;;;;;;46.33;37.67;;;;;;;;5090073;27;45482;-80
2022/10/04 00:17:42;;;;;;;;;43.67;35.33;;;;;;;;5087635;27;45396;-78
2022/10/04 00:20:27;;;;;;;;;50.00;39.75;;;;;;;;5094224;27;45551;-80
2022/10/04 00:23:11;;;;;;;;;44.67;33.67;;;;;;;;5092804;27;45512;-80
2022/10/04 00:25:36;;;;;;;;;48.25;36.50;;;;;;;;5091812;27;45437;-79
2022/10/04 00:28:20;;;;;;;;;46.00;36.00;;;;;;;;5094124;27;45399;-78
2022/10/04 00:31:11;;;;;;;;;42.00;34.67;;;;;;;;5095348;27;45690;-78
2022/10/04 00:33:47;;;;;;;;;41.33;35.33;;;;;;;;5082522;27;46437;-78
2022/10/04 00:36:24;;;;;;;;;37.00;34.00;;;;;;;;5079648;27;47276;-78
2022/10/04 00:39:03;;;;;;;;;38.00;30.67;;;;;;;;5080655;27;45470;-79
2022/10/04 00:41:33;;;;;;;;;41.00;32.33;;;;;;;;5082568;27;45558;-78
2022/10/04 00:43:58;;;;;;;;;39.00;33.33;;;;;;;;5100362;27;45795;-78
2022/10/04 00:46:26;;;;;;;;;48.33;35.33;;;;;;;;5076886;27;48401;-80
2022/10/04 00:48:56;;;;;;;;;48.33;36.33;;;;;;;;5095926;27;45476;-81
2022/10/04 00:51:40;;;;;;;;;46.67;34.00;;;;;;;;5087651;27;45964;-79
2022/10/04 00:54:11;;;;;;;;;43.33;35.00;;;;;;;;5095050;27;45808;-79
2022/10/04 00:56:42;;;;;;;;;40.33;35.67;;;;;;;;5077288;27;47122;-78
2022/10/04 00:59:20;;;;;;;;;44.67;33.67;;;;;;;;5095928;27;45690;-79
2022/10/04 01:01:47;;;;;;;;;42.00;34.67;;;;;;;;5096532;27;45452;-79
2022/10/04 01:04:23;;;;;;;;;41.67;36.00;;;;;;;;5071439;27;47327;-79
2022/10/04 01:06:48;;;;;;;;;48.33;35.67;;;;;;;;5090005;27;46514;-74
2022/10/04 01:09:16;;;;;;;;;29.33;20.67;;;;;;;;5095427;27;45735;-74
2022/10/04 01:11:45;;;;;;;;;44.33;36.00;;;;;;;;5094756;27;45918;-76
2022/10/04 01:14:27;;;;;;;;;42.00;33.67;;;;;;;;5096725;27;46044;-80
2022/10/04 01:16:52;;;;;;;;;48.75;37.75;;;;;;;;5107782;27;47662;-78
2022/10/04 01:19:21;;;;;;;;;52.75;40.50;;;;;;;;5094141;27;45727;-78
2022/10/04 01:21:46;;;;;;;;;48.50;39.00;;;;;;;;5075239;27;45415;-78
2022/10/04 01:24:11;;;;;;;;;52.00;40.50;;;;;;;;5097151;27;45625;-78
2022/10/04 01:26:40;;;;;;;;;53.75;39.00;;;;;;;;5094424;27;45792;-80
2022/10/04 01:29:10;;;;;;;;;52.25;40.50;;;;;;;;5084205;27;45842;-79
2022/10/04 01:31:37;;;;;;;;;49.50;40.75;;;;;;;;5094476;27;45526;-80
2022/10/04 01:34:04;;;;;;;;;50.00;41.00;;;;;;;;5093869;27;45772;-78
2022/10/04 01:36:30;;;;;;;;;53.50;42.00;;;;;;;;5081844;27;46839;-78
2022/10/04 01:38:55;;;;;;;;;51.75;41.50;;;;;;;;5087426;27;45805;-79
2022/10/04 01:41:26;;;;;;;;;52.75;39.50;;;;;;;;5068384;27;45364;-75
2022/10/04 01:43:53;;;;;;;;;50.33;39.00;;;;;;;;5094164;27;46014;-74
2022/10/04 01:46:24;;;;;;;;;49.75;40.75;;;;;;;;5094103;27;45875;-75
2022/10/04 01:48:50;;;;;;;;;51.00;39.75;;;;;;;;5081145;27;45715;-75
2022/10/04 01:51:35;;;;;;;;;50.25;40.25;;;;;;;;5088556;27;45786;-75
2022/10/04 01:54:16;;;;;;;;;53.75;40.00;;;;;;;;5092954;27;45811;-75
2022/10/04 01:56:46;;;;;;;;;49.75;40.25;;;;;;;;5092476;27;47270;-75
2022/10/04 01:59:15;;;;;;;;;47.75;37.25;;;;;;;;5093772;27;45538;-77
2022/10/04 02:01:54;;;;;;;;;49.50;36.75;;;;;;;;5067286;27;45797;-75
2022/10/04 02:04:48;;;;;;;;;51.00;40.50;;;;;;;;5093573;27;45610;-76
2022/10/04 02:07:14;;;;;;;;;54.00;40.00;;;;;;;;5088078;27;46515;-76
2022/10/04 02:09:42;;;;;;;;;50.50;38.25;;;;;;;;5093470;27;45327;-75
2022/10/04 02:12:08;;;;;;;;;49.50;39.25;;;;;;;;5074351;27;45417;-76
2022/10/04 02:14:35;;;;;;;;;47.25;38.25;;;;;;;;5093848;27;45431;-74
2022/10/04 02:17:02;;;;;;;;;52.50;39.50;;;;;;;;5105028;27;46255;-75
2022/10/04 02:19:33;;;;;;;;;38.25;26.25;;;;;;;;5091542;27;45723;-76
2022/10/04 02:22:00;;;;;;;;;46.75;37.00;;;;;;;;5094732;27;45467;-75
2022/10/04 02:24:25;;;;;;;;;49.00;39.00;;;;;;;;5093928;27;45465;-75
2022/10/04 02:26:51;;;;;;;;;39.33;32.33;;;;;;;;5093781;27;46400;-77
2022/10/04 02:29:17;;;;;;;;;44.00;35.67;;;;;;;;5103079;27;46378;-75
2022/10/04 02:34:26;;;;;;;;;41.33;33.67;;;;;;;;5082168;27;45701;-73
2022/10/04 02:36:52;;;;;;;;;42.00;36.33;;;;;;;;5094968;27;46790;-73
2022/10/04 02:39:24;;;;;;;;;47.00;36.67;;;;;;;;5104179;27;45724;-74
2022/10/04 02:41:57;;;;;;;;;44.67;32.00;;;;;;;;5092683;27;45837;-73
2022/10/04 02:44:22;;;;;;;;;43.67;35.33;;;;;;;;5074167;27;45903;-76
2022/10/04 02:46:56;;;;;;;;;47.00;35.75;;;;;;;;5092512;27;45461;-75
2022/10/04 02:49:30;;;;;;;;;51.50;40.25;;;;;;;;5099724;27;45504;-76
2022/10/04 02:52:17;;;;;;;;;31.67;31.33;;;;;;;;5086175;27;45813;-75
2022/10/04 02:54:45;;;;;;;;;44.50;36.25;;;;;;;;5093068;27;46625;-75
2022/10/04 02:57:15;;;;;;;;;49.75;38.25;;;;;;;;5074160;27;45551;-76
2022/10/04 02:59:40;;;;;;;;;49.75;36.50;;;;;;;;5074319;27;45812;-75
2022/10/04 03:02:20;;;;;;;;;51.00;37.75;;;;;;;;5079826;27;45917;-74
2022/10/04 03:04:45;;;;;;;;;51.00;39.50;;;;;;;;5093837;27;45529;-75
2022/10/04 03:07:10;;;;;;;;;49.50;40.25;;;;;;;;5098538;27;47366;-75
2022/10/04 03:09:36;;;;;;;;;54.50;42.75;;;;;;;;5097634;27;45831;-75
2022/10/04 03:12:03;;;;;;;;;49.50;37.50;;;;;;;;5074306;27;45460;-76
2022/10/04 03:14:29;;;;;;;;;53.50;40.50;;;;;;;;5092158;27;46073;-77
2022/10/04 03:16:55;;;;;;;;;46.25;37.00;;;;;;;;5073694;27;45800;-74
2022/10/04 03:19:23;;;;;;;;;45.75;37.50;;;;;;;;5092139;27;45717;-75
2022/10/04 03:21:51;;;;;;;;;33.33;29.00;;;;;;;;5088472;27;45459;-74
2022/10/04 03:24:19;;;;;;;;;41.33;34.67;;;;;;;;5073955;27;46028;-75
2022/10/04 03:26:45;;;;;;;;;47.25;36.75;;;;;;;;5075214;27;47630;-79
2022/10/04 03:29:12;;;;;;;;;47.00;36.25;;;;;;;;5076276;27;45764;-80
2022/10/04 03:31:49;;;;;;;;;51.00;36.00;;;;;;;;5075167;27;45865;-78
2022/10/04 03:34:15;;;;;;;;;42.33;37.33;;;;;;;;5062242;27;45927;-80
2022/10/04 03:36:42;;;;;;;;;51.75;41.25;;;;;;;;5095310;27;47888;-80
2022/10/04 03:39:17;;;;;;;;;39.75;36.00;;;;;;;;5095140;27;45558;-81
2022/10/04 03:41:43;;;;;;;;;48.33;37.33;;;;;;;;5084282;27;45729;-78
2022/10/04 03:44:15;;;;;;;;;46.67;38.00;;;;;;;;5068396;27;45509;-78
2022/10/04 03:46:42;;;;;;;;;45.50;34.00;;;;;;;;5097249;27;45773;-80
2022/10/04 03:49:07;;;;;;;;;44.50;34.00;;;;;;;;5100998;27;45492;-78
2022/10/04 03:51:33;;;;;;;;;47.50;36.50;;;;;;;;5100908;27;45394;-78
2022/10/04 03:54:00;;;;;;;;;47.50;38.50;;;;;;;;5100873;27;45600;-78
2022/10/04 03:56:30;;;;;;;;;45.25;36.00;;;;;;;;5096159;27;46210;-80
2022/10/04 03:58:56;;;;;;;;;49.50;35.75;;;;;;;;5094425;27;45453;-80
2022/10/04 04:01:21;;;;;;;;;40.33;33.67;;;;;;;;5074625;27;45557;-83
2022/10/04 04:03:56;;;;;;;;;45.75;37.75;;;;;;;;5076717;27;45970;-80
2022/10/04 04:06:22;;;;;;;;;47.50;38.75;;;;;;;;5095970;27;45397;-79
2022/10/04 04:08:51;;;;;;;;;49.50;38.00;;;;;;;;5077878;27;45867;-80
2022/10/04 04:11:24;;;;;;;;;56.50;41.25;;;;;;;;5071454;27;45563;-81
2022/10/04 04:14:16;;;;;;;;;46.50;37.25;;;;;;;;5074428;27;45752;-80
2022/10/04 04:16:42;;;;;;;;;58.00;40.00;;;;;;;;5088330;27;46523;-79
2022/10/04 04:19:12;;;;;;;;;55.75;44.25;;;;;;;;5075905;27;45923;-75
2022/10/04 04:21:37;;;;;;;;;51.00;37.25;;;;;;;;5095568;27;45457;-76
2022/10/04 04:24:08;;;;;;;;;55.00;41.50;;;;;;;;5096741;27;45485;-76
2022/10/04 04:26:44;;;;;;;;;49.25;40.50;;;;;;;;5106329;27;45634;-77
2022/10/04 04:29:10;;;;;;;;;52.00;37.25;;;;;;;;5094428;27;46216;-76
2022/10/04 04:31:49;;;;;;;;;42.25;36.75;;;;;;;;5090126;27;45762;-80
2022/10/04 04:34:38;;;;;;;;;46.50;37.00;;;;;;;;5111248;27;45660;-79
2022/10/04 04:37:04;;;;;;;;;49.50;37.50;;;;;;;;5073782;27;47295;-82
2022/10/04 04:39:33;;;;;;;;;65.50;48.75;;;;;;;;5100748;27;45553;-83
2022/10/04 04:42:01;;;;;;;;;46.25;35.75;;;;;;;;5093120;27;45444;-77
2022/10/04 04:44:27;;;;;;;;;47.50;39.25;;;;;;;;5088145;27;45513;-80
2022/10/04 04:46:55;;;;;;;;;53.75;37.25;;;;;;;;5075844;27;46489;-81
2022/10/04 04:49:22;;;;;;;;;49.00;36.67;;;;;;;;5073461;27;45742;-80
2022/10/04 04:51:50;;;;;;;;;47.33;37.00;;;;;;;;5094995;27;45747;-80
2022/10/04 04:54:17;;;;;;;;;47.33;36.33;;;;;;;;5075831;27;46938;-80
2022/10/04 04:56:46;;;;;;;;;45.67;35.33;;;;;;;;5097448;27;46299;-79
2022/10/04 04:59:13;;;;;;;;;40.67;33.00;;;;;;;;5094394;27;45997;-80
2022/10/04 05:01:43;;;;;;;;;42.67;34.00;;;;;;;;5078186;27;45384;-79
2022/10/04 05:04:11;;;;;;;;;43.67;34.33;;;;;;;;5075190;27;46463;-80
2022/10/04 05:06:47;;;;;;;;;42.67;35.00;;;;;;;;5081138;27;46315;-79
2022/10/04 05:09:25;;;;;;;;;44.00;35.67;;;;;;;;5075703;27;45616;-79
2022/10/04 05:11:53;;;;;;;;;34.67;29.67;;;;;;;;5076262;27;45499;-80
2022/10/04 05:14:18;;;;;;;;;46.67;35.00;;;;;;;;5095217;27;45593;-82
2022/10/04 05:16:51;;;;;;;;;37.00;32.67;;;;;;;;5082326;27;46155;-81
2022/10/04 05:19:36;;;;;;;;;28.00;24.67;;;;;;;;5081570;27;45795;-82
2022/10/04 05:22:13;;;;;;;;;44.00;34.67;;;;;;;;5111125;27;45733;-86
2022/10/04 05:24:41;;;;;;;;;42.00;34.67;;;;;;;;5088573;27;45960;-82
2022/10/04 05:27:20;;;;;;;;;49.25;35.00;;;;;;;;5085982;27;48234;-82
2022/10/04 05:30:01;;;;;;;;;40.00;31.00;;;;;;;;5060375;28;45782;-86
2022/10/04 05:32:34;;;;;;;;;46.33;34.00;;;;;;;;5094382;27;45479;-81
2022/10/04 05:35:21;;;;;;;;;25.00;21.67;;;;;;;;5075603;27;45477;-87
2022/10/04 05:37:56;;;;;;;;;41.67;32.67;;;;;;;;5093667;27;46641;-82
2022/10/04 05:40:28;;;;;;;;;41.33;34.33;;;;;;;;5105575;27;45718;-79
2022/10/04 05:42:56;;;;;;;;;49.67;37.00;;;;;;;;5080498;27;45824;-79
2022/10/04 05:45:26;;;;;;;;;47.75;38.00;;;;;;;;5087842;27;45604;-79
2022/10/04 05:47:53;;;;;;;;;51.00;37.00;;;;;;;;5070170;27;46449;-81
2022/10/04 05:50:40;;;;;;;;;38.00;32.50;;;;;;;;5090193;27;45765;-78
2022/10/04 05:53:44;;;;;;;;;54.75;39.25;;;;;;;;5086451;27;45531;-82
2022/10/04 05:56:10;;;;;;;;;42.50;36.50;;;;;;;;5095704;27;45499;-80
2022/10/04 05:58:51;;;;;;;;;46.67;37.33;;;;;;;;5067029;27;48454;-80
2022/10/04 06:01:31;;;;;;;;;31.00;29.67;;;;;;;;5084092;27;45917;-82
2022/10/04 06:04:11;;;;;;;;;39.00;33.33;;;;;;;;5081145;27;45792;-81
2022/10/04 06:06:43;;;;;;;;;42.00;32.67;;;;;;;;5064450;27;45972;-80
2022/10/04 06:09:27;;;;;;;;;41.67;35.67;;;;;;;;5075342;27;48563;-80
2022/10/04 06:12:01;;;;;;;;;42.00;32.67;;;;;;;;5085312;27;45679;-79
2022/10/04 06:14:47;;;;;;;;;35.33;31.00;;;;;;;;5089923;27;45768;-79
2022/10/04 06:17:31;;;;;;;;;26.67;24.67;;;;;;;;5080421;27;45655;-81
2022/10/04 06:19:59;;;;;;;;;37.67;34.33;;;;;;;;5083475;27;46583;-80
2022/10/04 06:22:32;;;;;;;;;43.33;34.00;;;;;;;;5080754;27;45598;-80
2022/10/04 06:25:12;;;;;;;;;41.00;33.00;;;;;;;;5063553;27;45765;-83
2022/10/04 06:28:18;;;;;;;;;37.33;29.33;;;;;;;;5088646;27;46392;-79
2022/10/04 06:30:52;;;;;;;;;40.33;34.67;;;;;;;;5089826;27;47113;-79
2022/10/04 06:33:36;;;;;;;;;33.67;30.67;;;;;;;;5092892;27;45917;-78
2022/10/04 06:36:17;;;;;;;;;49.50;39.75;;;;;;;;5081736;27;45829;-79
2022/10/04 06:38:43;;;;;;;;;44.33;32.67;;;;;;;;5092332;27;45739;-77
2022/10/04 06:41:17;;;;;;;;;36.00;33.00;;;;;;;;5092317;27;46681;-80
2022/10/04 06:43:46;;;;;;;;;33.00;30.00;;;;;;;;5084371;27;47361;-80
2022/10/04 06:46:36;;;;;;;;;34.33;31.33;;;;;;;;5093950;27;45405;-80
2022/10/04 06:49:28;;;;;;;;;36.67;32.00;;;;;;;;5093764;27;45650;-78
2022/10/04 06:51:53;;;;;;;;;36.00;30.67;;;;;;;;5098644;27;45853;-79
2022/10/04 06:54:33;;;;;;;;;35.00;30.00;;;;;;;;5094604;27;45514;-81
2022/10/04 06:56:59;;;;;;;;;39.33;31.67;;;;;;;;5091961;27;45948;-85
2022/10/04 06:59:35;;;;;;;;;37.67;32.00;;;;;;;;5074802;27;45804;-77
2022/10/04 07:02:21;;;;;;;;;33.00;29.33;;;;;;;;5088374;27;45606;-77
2022/10/04 07:04:57;;;;;;;;;35.67;34.00;;;;;;;;5089027;27;45477;-76
2022/10/04 07:07:34;;;;;;;;;44.67;35.33;;;;;;;;5074513;27;45532;-76
2022/10/04 07:10:03;;;;;;;;;35.67;31.67;;;;;;;;5070718;27;45696;-78
2022/10/04 07:12:30;;;;;;;;;48.33;35.33;;;;;;;;5109978;27;46645;-79
2022/10/04 07:14:59;;;;;;;;;39.00;32.00;;;;;;;;5109913;27;45745;-76
2022/10/04 07:17:36;;;;;;;;;43.00;35.00;;;;;;;;5107267;27;45354;-74
2022/10/04 07:20:02;;;;;;;;;50.67;38.33;;;;;;;;5091046;27;45795;-78
2022/10/04 07:22:39;;;;;;;;;36.33;29.67;;;;;;;;5104312;27;45786;-78
2022/10/04 07:25:18;;;;;;;;;42.00;35.33;;;;;;;;5108463;27;45616;-80
2022/10/04 07:27:43;;;;;;;;;42.67;34.67;;;;;;;;5089773;27;45739;-79
2022/10/04 07:30:14;;;;;;;;;45.00;35.00;;;;;;;;5107515;27;45581;-78
2022/10/04 07:32:44;;;;;;;;;46.67;37.67;;;;;;;;5072315;27;48678;-74
2022/10/04 07:35:12;;;;;;;;;44.33;35.00;;;;;;;;5109934;27;45737;-77
2022/10/04 07:38:04;;;;;;;;;46.67;36.67;;;;;;;;5073264;27;45770;-80
2022/10/04 07:40:35;;;;;;;;;82.00;69.25;;;;;;;;5052510;27;45840;-79
2022/10/04 07:43:04;;;;;;;;;53.33;39.33;;;;;;;;5092788;27;46108;-78
2022/10/04 07:45:31;;;;;;;;;53.33;40.67;;;;;;;;5104112;27;45518;-76
2022/10/04 07:48:09;;;;;;;;;46.33;38.00;;;;;;;;5095848;27;45778;-79
2022/10/04 07:50:54;;;;;;;;;53.33;43.00;;;;;;;;5103359;27;46011;-78
2022/10/04 07:53:27;;;;;;;;;49.33;36.33;;;;;;;;5054508;27;45517;-78
2022/10/04 07:56:06;;;;;;;;;50.67;40.00;;;;;;;;5092429;27;45373;-78
2022/10/04 07:58:50;;;;;;;;;46.33;38.67;;;;;;;;5079252;27;46067;-78
2022/10/04 08:01:22;;;;;;;;;53.67;40.33;;;;;;;;5072508;27;45841;-78
2022/10/04 08:03:50;;;;;;;;;48.67;40.00;;;;;;;;5090686;27;45533;-79
2022/10/04 08:06:22;;;;;;;;;49.67;38.67;;;;;;;;5091010;27;45822;-79
2022/10/04 08:08:57;;;;;;;;;50.00;40.00;;;;;;;;5091346;27;45315;-80
2022/10/04 08:11:30;;;;;;;;;50.00;39.67;;;;;;;;5091350;27;45457;-79
2022/10/04 08:14:02;;;;;;;;;46.00;35.67;;;;;;;;5066237;27;46113;-80
2022/10/04 08:16:35;;;;;;;;;48.67;40.33;;;;;;;;5092930;27;45608;-84
2022/10/04 08:19:13;;;;;;;;;50.00;40.00;;;;;;;;5089128;27;45546;-76
2022/10/04 08:21:46;;;;;;;;;52.33;42.00;;;;;;;;5090507;27;45804;-76
2022/10/04 08:24:27;;;;;;;;;54.33;39.67;;;;;;;;5072044;27;45742;-76
2022/10/04 08:27:00;;;;;;;;;51.33;39.33;;;;;;;;5085133;27;45702;-75
2022/10/04 08:29:51;;;;;;;;;52.67;38.67;;;;;;;;5092629;27;45670;-79
2022/10/04 08:32:31;;;;;;;;;54.00;39.33;;;;;;;;5091315;27;45841;-79
2022/10/04 08:35:15;;;;;;;;;46.00;34.67;;;;;;;;5093322;27;46185;-79
2022/10/04 08:37:40;;;;;;;;;46.33;39.67;;;;;;;;5082327;27;45719;-78
2022/10/04 08:40:25;;;;;;;;;49.00;37.00;;;;;;;;5076658;27;45849;-79
2022/10/04 08:43:11;;;;;;;;;51.33;40.67;;;;;;;;5103019;27;45673;-80
2022/10/04 08:45:55;;;;;;;;;50.00;40.67;;;;;;;;5085511;27;47357;-80
2022/10/04 08:48:23;;;;;;;;;52.00;40.67;;;;;;;;5097232;27;45434;-79
2022/10/04 08:51:19;;;;;;;;;43.33;38.00;;;;;;;;5093144;27;45409;-79
2022/10/04 08:53:47;;;;;;;;;50.67;39.67;;;;;;;;5094490;27;45798;-77
2022/10/04 08:56:31;;;;;;;;;52.00;39.67;;;;;;;;5084299;27;46374;-78
2022/10/04 08:59:25;;;;;;;;;42.00;35.33;;;;;;;;5093367;27;45831;-76
2022/10/04 09:02:07;;;;;;;;;43.67;34.33;;;;;;;;5073972;27;45507;-76
2022/10/04 09:04:45;;;;;;;;;46.33;34.33;;;;;;;;5093635;27;45830;-78
2022/10/04 09:07:10;;;;;;;;;45.00;34.00;;;;;;;;5093013;27;45712;-77
2022/10/04 09:09:59;;;;;;;;;40.67;32.00;;;;;;;;5093275;27;45568;-76
2022/10/04 09:12:53;;;;;;;;;40.33;33.33;;;;;;;;5075403;27;45675;-76
2022/10/04 09:15:21;;;;;;;;;30.67;28.00;;;;;;;;5093335;27;45668;-79
2022/10/04 09:18:13;;;;;;;;;40.00;31.00;;;;;;;;5093131;27;46221;-78
2022/10/04 09:20:40;;;;;;;;;38.00;32.00;;;;;;;;5070827;27;45793;-77
2022/10/04 09:23:27;;;;;;;;;32.33;27.67;;;;;;;;5093829;27;45859;-79
2022/10/04 09:26:14;;;;;;;;;26.33;25.33;;;;;;;;5074676;27;45644;-76
2022/10/04 09:29:01;;;;;;;;;29.33;27.00;;;;;;;;5093430;27;45745;-77
2022/10/04 09:31:32;;;;;;;;;33.00;22.67;;;;;;;;5086040;27;45510;-77
2022/10/04 09:34:01;;;;;;;;;31.00;28.00;;;;;;;;5075073;27;45488;-79
2022/10/04 09:36:39;;;;;;;;;30.33;24.67;;;;;;;;5092889;27;45732;-77
2022/10/04 09:39:16;;;;;;;;;33.00;29.00;;;;;;;;5093382;27;48286;-78
2022/10/04 09:42:06;;;;;;;;;35.33;32.00;;;;;;;;5081871;27;45554;-78
2022/10/04 09:44:45;;;;;;;;;35.00;26.33;;;;;;;;5101747;27;45563;-80
2022/10/04 09:47:11;;;;;;;;;27.00;26.33;;;;;;;;5086267;27;45825;-80
2022/10/04 09:49:54;;;;;;;;;27.67;24.00;;;;;;;;5105376;27;45792;-79
2022/10/04 09:52:19;;;;;;;;;30.00;27.67;;;;;;;;5072262;27;45451;-81
2022/10/04 09:54:55;;;;;;;;;22.00;21.67;;;;;;;;5092903;27;45620;-81
2022/10/04 09:57:52;;;;;;;;;24.33;20.33;;;;;;;;5112203;27;45911;-80
2022/10/04 10:00:24;;;;;;;;;21.67;19.33;;;;;;;;5073057;27;45930;-79
2022/10/04 10:03:01;;;;;;;;;19.50;18.25;;;;;;;;5101668;27;45435;-80
2022/10/04 10:05:29;;;;;;;;;19.75;17.50;;;;;;;;5095068;27;45517;-82
2022/10/04 10:08:15;;;;;;;;;17.25;14.75;;;;;;;;5080663;27;45791;-80
2022/10/04 10:14:03;;;;;;;;;16.25;16.25;;;;;;;;5094985;27;45830;-80
2022/10/04 10:16:38;;;;;;;;;18.00;16.25;;;;;;;;5084228;27;45540;-75
2022/10/04 10:19:04;;;;;;;;;25.00;21.25;;;;;;;;5102808;27;45377;-78
2022/10/04 10:21:42;;;;;;;;;19.00;14.50;;;;;;;;5085848;27;45945;-78
2022/10/04 10:24:28;;;;;;;;;19.50;18.25;;;;;;;;5089650;27;45631;-82
2022/10/04 10:26:57;;;;;;;;;21.25;16.75;;;;;;;;5080325;27;45829;-79
2022/10/04 10:29:28;;;;;;;;;16.50;15.75;;;;;;;;5095923;27;45477;-80
2022/10/04 10:32:00;;;;;;;;;21.50;18.00;;;;;;;;5067311;27;46871;-81
2022/10/04 10:34:44;;;;;;;;;26.00;19.25;;;;;;;;5079592;27;45621;-81
2022/10/04 10:37:15;;;;;;;;;25.67;22.33;;;;;;;;5087939;27;45953;-81
2022/10/04 10:39:52;;;;;;;;;19.67;18.67;;;;;;;;5090105;27;45630;-79
2022/10/04 10:42:31;;;;;;;;;20.00;20.00;;;;;;;;5086365;27;46534;-77
2022/10/04 10:45:08;;;;;;;;;25.00;22.00;;;;;;;;5079267;27;45496;-76
2022/10/04 10:47:58;;;;;;;;;25.00;22.00;;;;;;;;5092337;27;45882;-79
2022/10/04 10:50:26;;;;;;;;;26.00;22.00;;;;;;;;5085148;27;46359;-77
2022/10/04 10:53:13;;;;;;;;;24.33;22.00;;;;;;;;5085643;27;46242;-77
2022/10/04 10:55:48;;;;;;;;;26.33;23.00;;;;;;;;5056857;27;45532;-79
2022/10/04 10:58:21;;;;;;;;;28.67;23.67;;;;;;;;5088631;27;46054;-79
2022/10/04 11:01:05;;;;;;;;;32.33;29.33;;;;;;;;5097500;27;45484;-80
2022/10/04 11:03:30;;;;;;;;;26.00;24.00;;;;;;;;5085916;27;45845;-78
2022/10/04 11:06:22;;;;;;;;;26.67;23.00;;;;;;;;5073432;27;46077;-78
2022/10/04 11:08:50;;;;;;;;;35.67;31.67;;;;;;;;5080007;27;45736;-77
2022/10/04 11:11:19;;;;;;;;;27.00;25.00;;;;;;;;5090806;27;45641;-78
2022/10/04 11:13:52;;;;;;;;;32.67;28.00;;;;;;;;5093012;27;45754;-78
2022/10/04 11:16:24;;;;;;;;;30.00;25.33;;;;;;;;5091427;27;45778;-77
2022/10/04 11:18:55;;;;;;;;;27.67;26.00;;;;;;;;5072603;27;45514;-81
2022/10/04 11:21:29;;;;;;;;;25.33;21.33;;;;;;;;5091913;27;45753;-80
2022/10/04 11:24:12;;;;;;;;;30.00;28.33;;;;;;;;5072591;27;47802;-80
2022/10/04 11:27:07;;;;;;;;;23.67;21.67;;;;;;;;5072995;27;45834;-78
2022/10/04 11:30:11;;;;;;;;;26.00;22.50;;;;;;;;5074097;27;45482;-78
2022/10/04 11:33:06;;;;;;;;;25.67;20.33;;;;;;;;5020600;28;45044;-75
2022/10/04 11:35:50;;;;;;;;;28.00;23.00;;;;;;;;4971686;28;45571;-79
2022/10/04 11:38:46;;;;;;;;;23.67;23.00;;;;;;;;5071737;27;45516;-79
2022/10/04 11:41:15;;;;;;;;;15.33;14.00;;;;;;;;5086867;27;45436;-78
2022/10/04 11:43:59;;;;;;;;;13.67;13.33;;;;;;;;5114416;27;45288;-78
2022/10/04 11:46:44;;;;;;;;;17.67;13.00;;;;;;;;5107305;27;45492;-81
2022/10/04 11:49:34;;;;;;;;;13.67;11.67;;;;;;;;5112415;27;44798;-78
2022/10/04 11:52:16;;;;;;;;;12.33;12.33;;;;;;;;5097244;27;45370;-79
2022/10/04 11:54:57;;;;;;;;;11.33;10.33;;;;;;;;5092596;27;44737;-80
2022/10/04 11:57:22;;;;;;;;;13.00;11.67;;;;;;;;5112823;27;45416;-80
2022/10/04 11:59:56;;;;;;;;;13.33;12.00;;;;;;;;5125787;27;44786;-81
2022/10/04 12:02:28;;;;;;;;;13.00;12.00;;;;;;;;5103712;27;44779;-81
2022/10/04 12:05:04;;;;;;;;;19.33;12.00;;;;;;;;5115939;27;45485;-80
2022/10/04 12:07:37;;;;;;;;;13.33;10.67;;;;;;;;5120578;27;46516;-79
2022/10/04 12:10:12;;;;;;;;;17.33;13.33;;;;;;;;5133047;27;45239;-80
2022/10/04 12:12:48;;;;;;;;;16.00;13.67;;;;;;;;5117155;27;45345;-79
2022/10/04 12:15:14;;;;;;;;;15.33;14.33;;;;;;;;5096090;27;44819;-81
2022/10/04 12:18:05;;;;;;;;;15.67;12.00;;;;;;;;5096063;27;45250;-79
2022/10/04 12:20:50;;;;;;;;;15.00;15.00;;;;;;;;5112165;27;45410;-79
2022/10/04 12:23:21;;;;;;;;;15.67;12.00;;;;;;;;5115543;27;45338;-77
2022/10/04 12:26:06;;;;;;;;;15.00;12.00;;;;;;;;5108242;27;45410;-77
2022/10/04 12:28:50;;;;;;;;;13.67;12.00;;;;;;;;5094220;27;45495;-78
2022/10/04 12:31:21;;;;;;;;;17.00;14.67;;;;;;;;5111160;27;45483;-78
2022/10/04 12:34:05;;;;;;;;;14.67;11.33;;;;;;;;5111187;27;45334;-79
2022/10/04 12:36:37;;;;;;;;;13.33;13.33;;;;;;;;5102116;27;45318;-77
2022/10/04 12:39:05;;;;;;;;;19.33;15.00;;;;;;;;5103687;27;46653;-78
2022/10/04 12:41:46;;;;;;;;;13.00;12.67;;;;;;;;5110759;27;45366;-78
2022/10/04 12:44:21;;;;;;;;;20.33;16.33;;;;;;;;5110149;27;45506;-79
2022/10/04 12:47:04;;;;;;;;;12.00;11.67;;;;;;;;5111349;27;45426;-79
2022/10/04 12:49:44;;;;;;;;;11.33;11.00;;;;;;;;5110643;27;46783;-77
2022/10/04 12:52:15;;;;;;;;;11.33;11.33;;;;;;;;5100986;27;45416;-79
2022/10/04 12:54:47;;;;;;;;;17.00;13.67;;;;;;;;5097018;27;44814;-78
2022/10/04 12:57:12;;;;;;;;;14.33;12.67;;;;;;;;5085365;27;45363;-80
2022/10/04 13:00:02;;;;;;;;;17.33;12.33;;;;;;;;5127160;27;45368;-78
2022/10/04 13:02:30;;;;;;;;;17.33;14.67;;;;;;;;5115570;27;45323;-79
2022/10/04 13:04:58;;;;;;;;;15.00;13.33;;;;;;;;5113868;27;45332;-78
2022/10/04 13:07:42;;;;;;;;;15.33;12.67;;;;;;;;5113090;27;45359;-78
2022/10/04 13:10:07;;;;;;;;;15.33;15.33;;;;;;;;5102911;27;46157;-80
2022/10/04 13:12:32;;;;;;;;;15.33;12.67;;;;;;;;5053014;27;2162089;-78
2022/10/04 13:15:21;;;;;;;;;14.67;12.33;;;;;;;;5123535;27;45288;-78
2022/10/04 13:17:59;;;;;;;;;10.00;8.33;;;;;;;;5121707;27;44868;-79
2022/10/04 13:20:31;;;;;;;;;11.67;11.67;;;;;;;;5111451;27;46630;-80
2022/10/04 13:22:56;;;;;;;;;9.33;9.33;;;;;;;;5131088;27;44810;-77
2022/10/04 13:25:27;;;;;;;;;12.00;9.67;;;;;;;;5120481;27;44857;-80
2022/10/04 13:27:58;;;;;;;;;7.67;7.67;;;;;;;;5115290;27;45672;-81
2022/10/04 13:30:26;;;;;;;;;9.67;9.33;;;;;;;;5110967;27;47042;-82
2022/10/04 13:32:55;;;;;;;;;6.50;6.50;;;;;;;;5099857;27;44730;-78
2022/10/04 13:35:39;;;;;;;;;9.33;9.33;;;;;;;;5118055;27;44817;-79
2022/10/04 13:38:30;;;;;;;;;8.00;5.67;;;;;;;;5096258;27;46042;-81
2022/10/04 13:41:14;;;;;;;;;13.67;10.00;;;;;;;;5087543;27;45319;-81
2022/10/04 13:43:42;;;;;;;;;13.00;9.67;;;;;;;;5094081;27;45464;-80
2022/10/04 13:46:31;;;;;;;;;11.33;10.67;;;;;;;;5094350;27;45390;-79
2022/10/04 13:48:56;;;;;;;;;10.00;9.33;;;;;;;;5091862;27;45837;-80
2022/10/04 13:51:24;;;;;;;;;9.67;7.33;;;;;;;;5092684;27;45695;-80
2022/10/04 13:57:00;;;;;;;;;8.00;7.00;;;;;;;;5093337;27;45470;-80
2022/10/04 13:59:44;;;;;;;;;10.00;6.00;;;;;;;;5075201;27;45793;-80
2022/10/04 14:02:28;;;;;;;;;18.00;11.33;;;;;;;;5094218;27;46489;-80
2022/10/04 14:04:59;;;;;;;;;9.33;7.33;;;;;;;;5099349;27;45522;-79
2022/10/04 14:07:34;;;;;;;;;5.00;4.00;;;;;;;;5094721;27;45422;-80
2022/10/04 14:10:17;;;;;;;;;5.50;4.50;;;;;;;;5077480;27;46278;-81
2022/10/04 14:13:02;;;;;;;;;3.75;3.75;;;;;;;;5074608;27;47670;-80
2022/10/04 14:15:40;;;;;;;;;5.00;4.00;;;;;;;;5093775;27;45453;-81
2022/10/04 14:18:18;;;;;;;;;4.50;3.00;;;;;;;;5075192;27;45423;-78
2022/10/04 14:20:58;;;;;;;;;4.75;4.75;;;;;;;;5091742;27;45403;-80
2022/10/04 14:23:36;;;;;;;;;3.75;3.75;;;;;;;;5075564;27;47378;-78
2022/10/04 14:26:20;;;;;;;;;4.75;4.00;;;;;;;;5089166;27;45347;-79
2022/10/04 14:28:56;;;;;;;;;4.50;4.50;;;;;;;;5095231;27;45490;-77
2022/10/04 14:31:33;;;;;;;;;2.00;2.00;;;;;;;;5072852;27;45604;-78
2022/10/04 14:34:17;;;;;;;;;4.50;4.50;;;;;;;;5073682;27;46085;-80
2022/10/04 14:36:54;;;;;;;;;9.25;6.00;;;;;;;;5073191;27;45814;-80
2022/10/04 14:39:38;;;;;;;;;5.00;5.00;;;;;;;;5092628;27;46024;-81
2022/10/04 14:42:13;;;;;;;;;5.00;3.33;;;;;;;;5087360;27;45400;-83
2022/10/04 14:44:47;;;;;;;;;8.00;5.00;;;;;;;;5065977;27;46282;-85
2022/10/04 14:47:33;;;;;;;;;4.75;3.00;;;;;;;;5088873;27;45709;-83
2022/10/04 14:50:07;;;;;;;;;5.00;3.00;;;;;;;;5096541;27;45841;-83
2022/10/04 14:52:52;;;;;;;;;3.75;3.00;;;;;;;;5100232;27;45711;-82
2022/10/04 14:55:25;;;;;;;;;3.50;3.50;;;;;;;;5090958;27;45618;-77
2022/10/04 14:57:58;;;;;;;;;4.50;4.25;;;;;;;;5074095;27;45677;-84
2022/10/04 15:00:50;;;;;;;;;4.00;4.00;;;;;;;;5112454;27;45461;-85
2022/10/04 15:03:16;;;;;;;;;4.00;3.00;;;;;;;;5093866;27;46507;-82
2022/10/04 15:05:58;;;;;;;;;3.00;3.00;;;;;;;;5085978;27;46365;-80
2022/10/04 15:08:48;;;;;;;;;2.50;2.50;;;;;;;;5071565;27;45496;-80
2022/10/04 15:11:19;;;;;;;;;6.00;6.00;;;;;;;;5078275;27;45553;-78
2022/10/04 15:14:01;;;;;;;;;4.00;4.00;;;;;;;;5069628;27;45693;-81